sensor_id;sensor_type;location;lat;lon;timestamp;temperature;humidity
62912;DHT22;49111;51.028;4.218;2022-07-05T00:00:48;17.00;94.60
62912;DHT22;49111;51.028;4.218;2022-07-05T00:03:14;17.00;94.70
62912;DHT22;49111;51.028;4.218;2022-07-05T00:05:40;16.90;94.80
62912;DHT22;49111;51.028;4.218;2022-07-05T00:08:06;16.90;94.80
62912;DHT22;49111;51.028;4.218;2022-07-05T00:10:37;16.90;94.90
62912;DHT22;49111;51.028;4.218;2022-07-05T00:13:04;16.80;95.00
62912;DHT22;49111;51.028;4.218;2022-07-05T00:15:30;16.80;95.10
62912;DHT22;49111;51.028;4.218;2022-07-05T00:17:57;16.80;95.10
62912;DHT22;49111;51.028;4.218;2022-07-05T00:20:23;16.70;95.30
62912;DHT22;49111;51.028;4.218;2022-07-05T00:22:48;16.70;95.40
62912;DHT22;49111;51.028;4.218;2022-07-05T00:25:14;16.70;95.50
62912;DHT22;49111;51.028;4.218;2022-07-05T00:27:40;16.60;95.50
62912;DHT22;49111;51.028;4.218;2022-07-05T00:30:08;16.60;95.60
62912;DHT22;49111;51.028;4.218;2022-07-05T00:32:34;16.60;95.60
62912;DHT22;49111;51.028;4.218;2022-07-05T00:35:00;16.60;95.70
62912;DHT22;49111;51.028;4.218;2022-07-05T00:37:25;16.50;95.80
62912;DHT22;49111;51.028;4.218;2022-07-05T00:39:51;16.50;96.00
62912;DHT22;49111;51.028;4.218;2022-07-05T00:42:17;16.50;95.70
62912;DHT22;49111;51.028;4.218;2022-07-05T00:44:43;16.50;95.90
62912;DHT22;49111;51.028;4.218;2022-07-05T00:47:11;16.50;95.90
62912;DHT22;49111;51.028;4.218;2022-07-05T00:49:39;16.40;95.90
62912;DHT22;49111;51.028;4.218;2022-07-05T00:52:06;16.40;95.90
62912;DHT22;49111;51.028;4.218;2022-07-05T00:54:34;16.30;96.00
62912;DHT22;49111;51.028;4.218;2022-07-05T00:57:00;16.30;96.00
62912;DHT22;49111;51.028;4.218;2022-07-05T00:59:27;16.30;96.20
62912;DHT22;49111;51.028;4.218;2022-07-05T01:01:53;16.20;96.10
62912;DHT22;49111;51.028;4.218;2022-07-05T01:04:19;16.20;96.10
62912;DHT22;49111;51.028;4.218;2022-07-05T01:06:47;16.10;96.10
62912;DHT22;49111;51.028;4.218;2022-07-05T01:09:15;16.10;96.20
62912;DHT22;49111;51.028;4.218;2022-07-05T01:11:43;16.00;96.20
62912;DHT22;49111;51.028;4.218;2022-07-05T01:14:11;16.00;96.30
62912;DHT22;49111;51.028;4.218;2022-07-05T01:16:38;16.00;96.40
62912;DHT22;49111;51.028;4.218;2022-07-05T01:19:08;16.00;96.50
62912;DHT22;49111;51.028;4.218;2022-07-05T01:21:46;15.90;96.60
62912;DHT22;49111;51.028;4.218;2022-07-05T01:24:14;15.90;96.70
62912;DHT22;49111;51.028;4.218;2022-07-05T01:26:40;15.90;96.80
62912;DHT22;49111;51.028;4.218;2022-07-05T01:29:07;15.80;96.90
62912;DHT22;49111;51.028;4.218;2022-07-05T01:31:38;15.90;96.90
62912;DHT22;49111;51.028;4.218;2022-07-05T01:34:05;15.80;97.00
62912;DHT22;49111;51.028;4.218;2022-07-05T01:36:31;15.80;97.10
62912;DHT22;49111;51.028;4.218;2022-07-05T01:38:58;15.80;97.10
62912;DHT22;49111;51.028;4.218;2022-07-05T01:41:24;15.80;97.10
62912;DHT22;49111;51.028;4.218;2022-07-05T01:43:50;15.80;97.20
62912;DHT22;49111;51.028;4.218;2022-07-05T01:46:16;15.70;97.20
62912;DHT22;49111;51.028;4.218;2022-07-05T01:48:44;15.70;97.30
62912;DHT22;49111;51.028;4.218;2022-07-05T01:51:18;15.60;97.10
62912;DHT22;49111;51.028;4.218;2022-07-05T01:53:46;15.60;97.10
62912;DHT22;49111;51.028;4.218;2022-07-05T01:56:15;15.60;97.30
62912;DHT22;49111;51.028;4.218;2022-07-05T01:58:41;15.60;97.40
62912;DHT22;49111;51.028;4.218;2022-07-05T02:01:08;15.60;97.40
62912;DHT22;49111;51.028;4.218;2022-07-05T02:03:34;15.50;97.50
62912;DHT22;49111;51.028;4.218;2022-07-05T02:06:00;15.50;97.60
62912;DHT22;49111;51.028;4.218;2022-07-05T02:08:30;15.50;97.60
62912;DHT22;49111;51.028;4.218;2022-07-05T02:10:57;15.50;97.40
62912;DHT22;49111;51.028;4.218;2022-07-05T02:13:23;15.50;97.60
62912;DHT22;49111;51.028;4.218;2022-07-05T02:15:49;15.50;97.70
62912;DHT22;49111;51.028;4.218;2022-07-05T02:18:15;15.40;97.60
62912;DHT22;49111;51.028;4.218;2022-07-05T02:20:43;15.40;97.60
62912;DHT22;49111;51.028;4.218;2022-07-05T02:23:10;15.40;97.70
62912;DHT22;49111;51.028;4.218;2022-07-05T02:25:38;15.40;97.80
62912;DHT22;49111;51.028;4.218;2022-07-05T02:28:09;15.30;97.80
62912;DHT22;49111;51.028;4.218;2022-07-05T02:30:37;15.40;97.80
62912;DHT22;49111;51.028;4.218;2022-07-05T02:33:03;15.40;97.80
62912;DHT22;49111;51.028;4.218;2022-07-05T02:35:29;15.30;97.90
62912;DHT22;49111;51.028;4.218;2022-07-05T02:37:56;15.30;98.00
62912;DHT22;49111;51.028;4.218;2022-07-05T02:40:21;15.30;97.90
62912;DHT22;49111;51.028;4.218;2022-07-05T02:42:50;15.30;97.90
62912;DHT22;49111;51.028;4.218;2022-07-05T02:45:17;15.30;97.90
62912;DHT22;49111;51.028;4.218;2022-07-05T02:47:45;15.30;97.90
62912;DHT22;49111;51.028;4.218;2022-07-05T02:50:13;15.20;98.30
62912;DHT22;49111;51.028;4.218;2022-07-05T02:52:46;15.20;98.10
62912;DHT22;49111;51.028;4.218;2022-07-05T02:55:13;15.20;98.10
62912;DHT22;49111;51.028;4.218;2022-07-05T02:57:39;15.20;98.20
62912;DHT22;49111;51.028;4.218;2022-07-05T03:00:08;15.20;98.20
62912;DHT22;49111;51.028;4.218;2022-07-05T03:02:39;15.20;98.20
62912;DHT22;49111;51.028;4.218;2022-07-05T03:05:06;15.10;98.20
62912;DHT22;49111;51.028;4.218;2022-07-05T03:07:32;15.10;98.20
62912;DHT22;49111;51.028;4.218;2022-07-05T03:09:59;15.10;98.60
62912;DHT22;49111;51.028;4.218;2022-07-05T03:12:25;15.10;98.70
62912;DHT22;49111;51.028;4.218;2022-07-05T03:14:51;15.10;98.60
62912;DHT22;49111;51.028;4.218;2022-07-05T03:17:19;15.10;98.70
62912;DHT22;49111;51.028;4.218;2022-07-05T03:19:45;15.10;98.70
62912;DHT22;49111;51.028;4.218;2022-07-05T03:22:13;15.10;98.80
62912;DHT22;49111;51.028;4.218;2022-07-05T03:24:40;15.10;98.90
62912;DHT22;49111;51.028;4.218;2022-07-05T03:27:06;15.10;98.90
62912;DHT22;49111;51.028;4.218;2022-07-05T03:29:33;15.10;98.80
62912;DHT22;49111;51.028;4.218;2022-07-05T03:31:59;15.10;98.70
62912;DHT22;49111;51.028;4.218;2022-07-05T03:34:28;15.10;98.60
62912;DHT22;49111;51.028;4.218;2022-07-05T03:36:55;15.10;98.50
62912;DHT22;49111;51.028;4.218;2022-07-05T03:39:21;15.10;98.50
62912;DHT22;49111;51.028;4.218;2022-07-05T03:41:47;15.00;98.70
62912;DHT22;49111;51.028;4.218;2022-07-05T03:44:18;15.10;98.80
62912;DHT22;49111;51.028;4.218;2022-07-05T03:46:43;15.10;98.90
62912;DHT22;49111;51.028;4.218;2022-07-05T03:49:09;15.10;98.80
62912;DHT22;49111;51.028;4.218;2022-07-05T03:51:35;15.00;98.70
62912;DHT22;49111;51.028;4.218;2022-07-05T03:54:02;15.00;98.80
62912;DHT22;49111;51.028;4.218;2022-07-05T03:56:29;15.00;98.80
62912;DHT22;49111;51.028;4.218;2022-07-05T03:58:59;15.10;98.70
62912;DHT22;49111;51.028;4.218;2022-07-05T04:01:26;15.00;98.60
62912;DHT22;49111;51.028;4.218;2022-07-05T04:03:53;15.10;98.70
62912;DHT22;49111;51.028;4.218;2022-07-05T04:06:19;15.00;98.70
62912;DHT22;49111;51.028;4.218;2022-07-05T04:08:45;15.00;99.00
62912;DHT22;49111;51.028;4.218;2022-07-05T04:11:12;15.00;98.80
62912;DHT22;49111;51.028;4.218;2022-07-05T04:13:40;15.00;98.60
62912;DHT22;49111;51.028;4.218;2022-07-05T04:16:06;15.00;98.80
62912;DHT22;49111;51.028;4.218;2022-07-05T04:18:33;15.00;99.00
62912;DHT22;49111;51.028;4.218;2022-07-05T04:21:05;14.90;98.80
62912;DHT22;49111;51.028;4.218;2022-07-05T04:23:31;14.80;98.50
62912;DHT22;49111;51.028;4.218;2022-07-05T04:25:57;14.90;98.50
62912;DHT22;49111;51.028;4.218;2022-07-05T04:28:31;14.90;98.40
62912;DHT22;49111;51.028;4.218;2022-07-05T04:30:59;14.90;98.50
62912;DHT22;49111;51.028;4.218;2022-07-05T04:33:26;15.00;98.40
62912;DHT22;49111;51.028;4.218;2022-07-05T04:35:55;15.00;98.60
62912;DHT22;49111;51.028;4.218;2022-07-05T04:38:21;15.10;98.70
62912;DHT22;49111;51.028;4.218;2022-07-05T04:40:47;15.20;98.80
62912;DHT22;49111;51.028;4.218;2022-07-05T04:43:13;15.20;98.90
62912;DHT22;49111;51.028;4.218;2022-07-05T04:45:39;15.30;99.00
62912;DHT22;49111;51.028;4.218;2022-07-05T04:48:05;15.30;99.20
62912;DHT22;49111;51.028;4.218;2022-07-05T04:50:33;15.30;99.30
62912;DHT22;49111;51.028;4.218;2022-07-05T04:52:59;15.30;99.20
62912;DHT22;49111;51.028;4.218;2022-07-05T04:55:25;15.40;99.30
62912;DHT22;49111;51.028;4.218;2022-07-05T04:57:50;15.40;99.40
62912;DHT22;49111;51.028;4.218;2022-07-05T05:00:16;15.50;99.40
62912;DHT22;49111;51.028;4.218;2022-07-05T05:02:42;15.60;99.50
62912;DHT22;49111;51.028;4.218;2022-07-05T05:05:08;15.60;99.50
62912;DHT22;49111;51.028;4.218;2022-07-05T05:07:34;15.70;99.40
62912;DHT22;49111;51.028;4.218;2022-07-05T05:10:01;15.70;99.40
62912;DHT22;49111;51.028;4.218;2022-07-05T05:12:26;15.80;99.60
62912;DHT22;49111;51.028;4.218;2022-07-05T05:14:53;15.80;99.70
62912;DHT22;49111;51.028;4.218;2022-07-05T05:17:18;15.80;99.80
62912;DHT22;49111;51.028;4.218;2022-07-05T05:19:44;15.80;99.70
62912;DHT22;49111;51.028;4.218;2022-07-05T05:22:10;15.80;99.80
62912;DHT22;49111;51.028;4.218;2022-07-05T05:24:37;15.70;99.90
62912;DHT22;49111;51.028;4.218;2022-07-05T05:27:03;15.70;99.90
62912;DHT22;49111;51.028;4.218;2022-07-05T05:29:29;15.70;99.90
62912;DHT22;49111;51.028;4.218;2022-07-05T05:31:54;15.80;99.90
62912;DHT22;49111;51.028;4.218;2022-07-05T05:34:20;15.80;99.70
62912;DHT22;49111;51.028;4.218;2022-07-05T05:36:46;15.80;99.60
62912;DHT22;49111;51.028;4.218;2022-07-05T05:39:12;15.90;99.60
62912;DHT22;49111;51.028;4.218;2022-07-05T05:41:38;15.90;99.80
62912;DHT22;49111;51.028;4.218;2022-07-05T05:44:04;16.00;99.80
62912;DHT22;49111;51.028;4.218;2022-07-05T05:46:30;15.90;99.90
62912;DHT22;49111;51.028;4.218;2022-07-05T05:48:57;16.00;99.90
62912;DHT22;49111;51.028;4.218;2022-07-05T05:51:24;16.00;99.90
62912;DHT22;49111;51.028;4.218;2022-07-05T05:53:50;16.20;99.90
62912;DHT22;49111;51.028;4.218;2022-07-05T05:56:16;16.20;99.90
62912;DHT22;49111;51.028;4.218;2022-07-05T05:58:41;16.40;99.90
62912;DHT22;49111;51.028;4.218;2022-07-05T06:01:07;16.40;99.90
62912;DHT22;49111;51.028;4.218;2022-07-05T06:03:33;16.50;99.90
62912;DHT22;49111;51.028;4.218;2022-07-05T06:05:59;16.60;99.90
62912;DHT22;49111;51.028;4.218;2022-07-05T06:08:25;16.60;99.90
62912;DHT22;49111;51.028;4.218;2022-07-05T06:10:50;16.70;99.90
62912;DHT22;49111;51.028;4.218;2022-07-05T06:13:16;16.90;99.60
62912;DHT22;49111;51.028;4.218;2022-07-05T06:15:42;16.80;99.90
62912;DHT22;49111;51.028;4.218;2022-07-05T06:18:10;16.70;99.90
62912;DHT22;49111;51.028;4.218;2022-07-05T06:20:37;16.70;99.90
62912;DHT22;49111;51.028;4.218;2022-07-05T06:23:05;16.80;99.90
62912;DHT22;49111;51.028;4.218;2022-07-05T06:25:32;16.70;99.90
62912;DHT22;49111;51.028;4.218;2022-07-05T06:28:00;16.80;99.90
62912;DHT22;49111;51.028;4.218;2022-07-05T06:30:28;16.80;99.90
62912;DHT22;49111;51.028;4.218;2022-07-05T06:32:54;17.10;99.90
62912;DHT22;49111;51.028;4.218;2022-07-05T06:35:21;17.00;99.90
62912;DHT22;49111;51.028;4.218;2022-07-05T06:37:47;17.00;99.90
62912;DHT22;49111;51.028;4.218;2022-07-05T06:40:26;17.10;99.90
62912;DHT22;49111;51.028;4.218;2022-07-05T06:42:53;17.30;99.90
62912;DHT22;49111;51.028;4.218;2022-07-05T06:45:23;17.30;99.90
62912;DHT22;49111;51.028;4.218;2022-07-05T06:50:20;17.50;99.90
62912;DHT22;49111;51.028;4.218;2022-07-05T06:52:46;17.50;99.90
62912;DHT22;49111;51.028;4.218;2022-07-05T06:55:12;17.70;99.90
62912;DHT22;49111;51.028;4.218;2022-07-05T06:57:38;18.00;99.60
62912;DHT22;49111;51.028;4.218;2022-07-05T07:00:04;18.20;99.10
62912;DHT22;49111;51.028;4.218;2022-07-05T07:02:31;18.40;99.30
62912;DHT22;49111;51.028;4.218;2022-07-05T07:04:56;18.60;98.70
62912;DHT22;49111;51.028;4.218;2022-07-05T07:07:22;18.90;98.20
62912;DHT22;49111;51.028;4.218;2022-07-05T07:10:07;19.10;97.70
62912;DHT22;49111;51.028;4.218;2022-07-05T07:12:32;19.30;97.80
62912;DHT22;49111;51.028;4.218;2022-07-05T07:14:58;19.40;97.30
62912;DHT22;49111;51.028;4.218;2022-07-05T07:17:24;19.70;97.00
62912;DHT22;49111;51.028;4.218;2022-07-05T07:19:50;19.80;96.70
62912;DHT22;49111;51.028;4.218;2022-07-05T07:22:16;19.90;96.50
62912;DHT22;49111;51.028;4.218;2022-07-05T07:24:42;20.00;96.30
62912;DHT22;49111;51.028;4.218;2022-07-05T07:27:07;20.30;96.00
62912;DHT22;49111;51.028;4.218;2022-07-05T07:29:35;20.40;95.60
62912;DHT22;49111;51.028;4.218;2022-07-05T07:32:02;20.60;94.90
62912;DHT22;49111;51.028;4.218;2022-07-05T07:34:28;20.70;94.90
62912;DHT22;49111;51.028;4.218;2022-07-05T07:36:56;20.70;95.50
62912;DHT22;49111;51.028;4.218;2022-07-05T07:39:22;20.70;95.10
62912;DHT22;49111;51.028;4.218;2022-07-05T07:41:48;20.80;95.70
62912;DHT22;49111;51.028;4.218;2022-07-05T07:44:14;20.80;94.60
62912;DHT22;49111;51.028;4.218;2022-07-05T07:46:40;21.10;93.70
62912;DHT22;49111;51.028;4.218;2022-07-05T07:49:07;21.20;93.70
62912;DHT22;49111;51.028;4.218;2022-07-05T07:51:33;21.20;93.40
62912;DHT22;49111;51.028;4.218;2022-07-05T07:53:59;21.20;93.50
62912;DHT22;49111;51.028;4.218;2022-07-05T07:56:25;21.10;94.00
62912;DHT22;49111;51.028;4.218;2022-07-05T07:58:51;21.20;93.50
62912;DHT22;49111;51.028;4.218;2022-07-05T08:01:17;21.20;93.80
62912;DHT22;49111;51.028;4.218;2022-07-05T08:03:43;21.00;93.60
62912;DHT22;49111;51.028;4.218;2022-07-05T08:06:11;21.00;94.10
62912;DHT22;49111;51.028;4.218;2022-07-05T08:08:41;21.10;93.80
62912;DHT22;49111;51.028;4.218;2022-07-05T08:11:09;20.90;93.80
62912;DHT22;49111;51.028;4.218;2022-07-05T08:13:36;21.00;94.10
62912;DHT22;49111;51.028;4.218;2022-07-05T08:16:02;21.00;93.60
62912;DHT22;49111;51.028;4.218;2022-07-05T08:18:28;21.10;93.70
62912;DHT22;49111;51.028;4.218;2022-07-05T08:21:12;21.00;93.80
62912;DHT22;49111;51.028;4.218;2022-07-05T08:24:02;21.00;93.70
62912;DHT22;49111;51.028;4.218;2022-07-05T08:26:28;20.80;93.60
62912;DHT22;49111;51.028;4.218;2022-07-05T08:28:56;20.90;93.90
62912;DHT22;49111;51.028;4.218;2022-07-05T08:31:25;20.90;94.00
62912;DHT22;49111;51.028;4.218;2022-07-05T08:33:51;21.10;93.50
62912;DHT22;49111;51.028;4.218;2022-07-05T08:36:17;21.20;93.10
62912;DHT22;49111;51.028;4.218;2022-07-05T08:38:43;21.20;92.50
62912;DHT22;49111;51.028;4.218;2022-07-05T08:41:10;21.30;93.30
62912;DHT22;49111;51.028;4.218;2022-07-05T08:43:41;21.20;92.90
62912;DHT22;49111;51.028;4.218;2022-07-05T08:46:08;21.20;92.80
62912;DHT22;49111;51.028;4.218;2022-07-05T08:48:39;21.10;93.30
62912;DHT22;49111;51.028;4.218;2022-07-05T08:51:14;21.20;93.10
62912;DHT22;49111;51.028;4.218;2022-07-05T08:53:42;21.30;93.00
62912;DHT22;49111;51.028;4.218;2022-07-05T08:56:10;21.50;93.00
62912;DHT22;49111;51.028;4.218;2022-07-05T08:58:36;21.70;92.60
62912;DHT22;49111;51.028;4.218;2022-07-05T09:01:02;21.70;92.30
62912;DHT22;49111;51.028;4.218;2022-07-05T09:03:33;21.80;92.20
62912;DHT22;49111;51.028;4.218;2022-07-05T09:06:05;21.80;91.80
62912;DHT22;49111;51.028;4.218;2022-07-05T09:08:35;21.90;92.00
62912;DHT22;49111;51.028;4.218;2022-07-05T09:11:09;22.10;90.80
62912;DHT22;49111;51.028;4.218;2022-07-05T09:13:38;22.20;90.30
62912;DHT22;49111;51.028;4.218;2022-07-05T09:16:04;22.30;90.40
62912;DHT22;49111;51.028;4.218;2022-07-05T09:18:51;22.40;89.00
62912;DHT22;49111;51.028;4.218;2022-07-05T09:23:43;22.50;90.00
62912;DHT22;49111;51.028;4.218;2022-07-05T09:26:09;22.50;89.80
62912;DHT22;49111;51.028;4.218;2022-07-05T09:28:35;22.40;90.80
62912;DHT22;49111;51.028;4.218;2022-07-05T09:31:01;22.40;91.30
62912;DHT22;49111;51.028;4.218;2022-07-05T09:33:27;22.50;90.20
62912;DHT22;49111;51.028;4.218;2022-07-05T09:35:57;22.70;90.90
62912;DHT22;49111;51.028;4.218;2022-07-05T09:38:24;22.70;90.20
62912;DHT22;49111;51.028;4.218;2022-07-05T09:40:52;22.70;89.30
62912;DHT22;49111;51.028;4.218;2022-07-05T09:43:21;22.80;87.30
62912;DHT22;49111;51.028;4.218;2022-07-05T09:45:53;22.80;88.60
62912;DHT22;49111;51.028;4.218;2022-07-05T09:48:19;22.90;89.30
62912;DHT22;49111;51.028;4.218;2022-07-05T09:50:44;22.90;89.10
62912;DHT22;49111;51.028;4.218;2022-07-05T09:53:11;22.90;86.60
62912;DHT22;49111;51.028;4.218;2022-07-05T09:55:37;22.80;88.60
62912;DHT22;49111;51.028;4.218;2022-07-05T09:58:04;23.10;84.70
62912;DHT22;49111;51.028;4.218;2022-07-05T10:00:30;23.00;83.10
62912;DHT22;49111;51.028;4.218;2022-07-05T10:02:57;23.10;84.70
62912;DHT22;49111;51.028;4.218;2022-07-05T10:05:31;23.40;83.50
62912;DHT22;49111;51.028;4.218;2022-07-05T10:07:59;23.80;83.50
62912;DHT22;49111;51.028;4.218;2022-07-05T10:10:27;24.10;80.10
62912;DHT22;49111;51.028;4.218;2022-07-05T10:13:01;24.00;80.20
62912;DHT22;49111;51.028;4.218;2022-07-05T10:15:33;23.90;79.40
62912;DHT22;49111;51.028;4.218;2022-07-05T10:23:17;23.80;80.40
62912;DHT22;49111;51.028;4.218;2022-07-05T10:25:48;23.70;80.40
62912;DHT22;49111;51.028;4.218;2022-07-05T10:28:19;23.60;80.60
62912;DHT22;49111;51.028;4.218;2022-07-05T10:30:46;23.60;80.10
62912;DHT22;49111;51.028;4.218;2022-07-05T10:33:18;23.40;81.20
62912;DHT22;49111;51.028;4.218;2022-07-05T10:35:47;23.40;81.20
62912;DHT22;49111;51.028;4.218;2022-07-05T10:38:14;23.40;81.60
62912;DHT22;49111;51.028;4.218;2022-07-05T10:40:46;23.50;82.30
62912;DHT22;49111;51.028;4.218;2022-07-05T10:43:14;23.20;82.30
62912;DHT22;49111;51.028;4.218;2022-07-05T10:45:47;23.20;83.60
62912;DHT22;49111;51.028;4.218;2022-07-05T10:53:18;23.00;85.00
62912;DHT22;49111;51.028;4.218;2022-07-05T10:58:17;23.30;81.00
62912;DHT22;49111;51.028;4.218;2022-07-05T11:00:45;23.40;79.70
62912;DHT22;49111;51.028;4.218;2022-07-05T11:03:36;23.40;82.60
62912;DHT22;49111;51.028;4.218;2022-07-05T11:06:04;23.60;80.30
62912;DHT22;49111;51.028;4.218;2022-07-05T11:08:31;23.70;78.70
62912;DHT22;49111;51.028;4.218;2022-07-05T11:11:12;23.70;77.10
62912;DHT22;49111;51.028;4.218;2022-07-05T11:13:42;23.70;78.90
62912;DHT22;49111;51.028;4.218;2022-07-05T11:16:38;23.50;77.30
62912;DHT22;49111;51.028;4.218;2022-07-05T11:19:15;23.60;76.40
62912;DHT22;49111;51.028;4.218;2022-07-05T11:22:02;23.90;78.30
62912;DHT22;49111;51.028;4.218;2022-07-05T11:24:31;24.20;77.40
62912;DHT22;49111;51.028;4.218;2022-07-05T11:27:02;24.40;74.00
62912;DHT22;49111;51.028;4.218;2022-07-05T11:29:51;24.30;71.60
62912;DHT22;49111;51.028;4.218;2022-07-05T11:34:52;24.00;79.10
62912;DHT22;49111;51.028;4.218;2022-07-05T11:37:27;23.80;79.20
62912;DHT22;49111;51.028;4.218;2022-07-05T11:42:33;23.50;79.80
62912;DHT22;49111;51.028;4.218;2022-07-05T11:45:00;23.40;80.50
62912;DHT22;49111;51.028;4.218;2022-07-05T11:47:27;23.30;82.00
62912;DHT22;49111;51.028;4.218;2022-07-05T11:49:58;23.40;80.10
62912;DHT22;49111;51.028;4.218;2022-07-05T11:54:53;23.60;80.10
62912;DHT22;49111;51.028;4.218;2022-07-05T11:57:19;23.70;79.70
62912;DHT22;49111;51.028;4.218;2022-07-05T11:59:46;23.70;81.70
62912;DHT22;49111;51.028;4.218;2022-07-05T12:02:13;23.80;80.40
62912;DHT22;49111;51.028;4.218;2022-07-05T12:04:39;23.90;78.60
62912;DHT22;49111;51.028;4.218;2022-07-05T12:07:05;23.90;78.60
62912;DHT22;49111;51.028;4.218;2022-07-05T12:09:32;23.80;78.60
62912;DHT22;49111;51.028;4.218;2022-07-05T12:12:33;23.70;78.80
62912;DHT22;49111;51.028;4.218;2022-07-05T12:15:15;23.80;77.40
62912;DHT22;49111;51.028;4.218;2022-07-05T12:17:44;23.60;76.90
62912;DHT22;49111;51.028;4.218;2022-07-05T12:20:12;23.60;79.20
62912;DHT22;49111;51.028;4.218;2022-07-05T12:22:40;23.80;79.20
62912;DHT22;49111;51.028;4.218;2022-07-05T12:25:08;23.80;77.00
62912;DHT22;49111;51.028;4.218;2022-07-05T12:27:37;23.60;76.30
62912;DHT22;49111;51.028;4.218;2022-07-05T12:30:04;23.70;77.90
62912;DHT22;49111;51.028;4.218;2022-07-05T12:32:31;23.80;78.70
62912;DHT22;49111;51.028;4.218;2022-07-05T12:34:57;24.10;79.40
62912;DHT22;49111;51.028;4.218;2022-07-05T12:37:25;24.20;76.40
62912;DHT22;49111;51.028;4.218;2022-07-05T12:40:07;23.90;75.00
62912;DHT22;49111;51.028;4.218;2022-07-05T12:42:35;23.50;76.60
62912;DHT22;49111;51.028;4.218;2022-07-05T12:45:15;23.50;76.80
62912;DHT22;49111;51.028;4.218;2022-07-05T12:47:55;23.50;78.40
62912;DHT22;49111;51.028;4.218;2022-07-05T12:50:26;23.60;76.80
62912;DHT22;49111;51.028;4.218;2022-07-05T12:53:03;23.20;75.90
62912;DHT22;49111;51.028;4.218;2022-07-05T12:56:12;23.40;77.20
62912;DHT22;49111;51.028;4.218;2022-07-05T12:58:56;23.60;76.80
62912;DHT22;49111;51.028;4.218;2022-07-05T13:01:26;23.70;75.90
62912;DHT22;49111;51.028;4.218;2022-07-05T13:06:48;23.90;75.30
62912;DHT22;49111;51.028;4.218;2022-07-05T13:12:19;24.40;75.50
62912;DHT22;49111;51.028;4.218;2022-07-05T13:14:48;24.60;74.00
62912;DHT22;49111;51.028;4.218;2022-07-05T13:17:16;24.70;74.90
62912;DHT22;49111;51.028;4.218;2022-07-05T13:19:43;24.60;72.10
62912;DHT22;49111;51.028;4.218;2022-07-05T13:22:10;24.70;73.90
62912;DHT22;49111;51.028;4.218;2022-07-05T13:24:37;24.70;74.10
62912;DHT22;49111;51.028;4.218;2022-07-05T13:27:03;24.80;70.60
62912;DHT22;49111;51.028;4.218;2022-07-05T13:29:29;24.90;72.60
62912;DHT22;49111;51.028;4.218;2022-07-05T13:31:55;25.20;72.90
62912;DHT22;49111;51.028;4.218;2022-07-05T13:34:21;25.00;71.20
62912;DHT22;49111;51.028;4.218;2022-07-05T13:36:52;25.00;69.60
62912;DHT22;49111;51.028;4.218;2022-07-05T13:39:19;24.90;71.60
62912;DHT22;49111;51.028;4.218;2022-07-05T13:41:47;24.80;70.40
62912;DHT22;49111;51.028;4.218;2022-07-05T13:44:13;24.60;69.60
62912;DHT22;49111;51.028;4.218;2022-07-05T13:46:39;24.20;70.20
62912;DHT22;49111;51.028;4.218;2022-07-05T13:49:05;24.20;71.60
62912;DHT22;49111;51.028;4.218;2022-07-05T13:51:31;23.90;72.80
62912;DHT22;49111;51.028;4.218;2022-07-05T13:53:56;24.00;72.80
62912;DHT22;49111;51.028;4.218;2022-07-05T13:56:22;24.20;71.80
62912;DHT22;49111;51.028;4.218;2022-07-05T13:58:48;23.80;71.50
62912;DHT22;49111;51.028;4.218;2022-07-05T14:01:14;23.40;72.70
62912;DHT22;49111;51.028;4.218;2022-07-05T14:03:40;23.40;74.40
62912;DHT22;49111;51.028;4.218;2022-07-05T14:06:06;23.50;75.20
62912;DHT22;49111;51.028;4.218;2022-07-05T14:08:31;23.70;74.00
62912;DHT22;49111;51.028;4.218;2022-07-05T14:10:57;23.80;74.00
62912;DHT22;49111;51.028;4.218;2022-07-05T14:13:25;23.80;73.30
62912;DHT22;49111;51.028;4.218;2022-07-05T14:15:52;23.80;72.10
62912;DHT22;49111;51.028;4.218;2022-07-05T14:18:20;23.90;71.80
62912;DHT22;49111;51.028;4.218;2022-07-05T14:20:46;24.00;71.30
62912;DHT22;49111;51.028;4.218;2022-07-05T14:23:13;24.00;70.10
62912;DHT22;49111;51.028;4.218;2022-07-05T14:25:40;24.00;71.40
62912;DHT22;49111;51.028;4.218;2022-07-05T14:28:06;24.00;71.40
62912;DHT22;49111;51.028;4.218;2022-07-05T14:30:40;24.10;69.70
62912;DHT22;49111;51.028;4.218;2022-07-05T14:33:09;24.30;70.20
62912;DHT22;49111;51.028;4.218;2022-07-05T14:35:34;24.40;70.00
62912;DHT22;49111;51.028;4.218;2022-07-05T14:38:00;24.40;68.60
62912;DHT22;49111;51.028;4.218;2022-07-05T14:40:26;24.40;68.20
62912;DHT22;49111;51.028;4.218;2022-07-05T14:42:53;24.20;68.00
62912;DHT22;49111;51.028;4.218;2022-07-05T14:45:20;24.10;68.60
62912;DHT22;49111;51.028;4.218;2022-07-05T14:47:47;24.20;69.50
62912;DHT22;49111;51.028;4.218;2022-07-05T14:50:13;24.40;67.40
62912;DHT22;49111;51.028;4.218;2022-07-05T14:52:39;24.60;68.20
62912;DHT22;49111;51.028;4.218;2022-07-05T14:55:05;24.40;67.10
62912;DHT22;49111;51.028;4.218;2022-07-05T14:57:31;24.10;68.90
62912;DHT22;49111;51.028;4.218;2022-07-05T14:59:56;23.80;68.60
62912;DHT22;49111;51.028;4.218;2022-07-05T15:02:22;23.90;69.40
62912;DHT22;49111;51.028;4.218;2022-07-05T15:04:48;23.90;69.10
62912;DHT22;49111;51.028;4.218;2022-07-05T15:07:15;24.00;69.30
62912;DHT22;49111;51.028;4.218;2022-07-05T15:09:41;23.90;68.80
62912;DHT22;49111;51.028;4.218;2022-07-05T15:12:07;24.00;68.20
62912;DHT22;49111;51.028;4.218;2022-07-05T15:14:33;23.80;67.40
62912;DHT22;49111;51.028;4.218;2022-07-05T15:16:59;23.80;67.90
62912;DHT22;49111;51.028;4.218;2022-07-05T15:19:24;23.60;67.30
62912;DHT22;49111;51.028;4.218;2022-07-05T15:21:50;23.50;68.20
62912;DHT22;49111;51.028;4.218;2022-07-05T15:24:16;23.60;67.60
62912;DHT22;49111;51.028;4.218;2022-07-05T15:26:43;23.60;66.10
62912;DHT22;49111;51.028;4.218;2022-07-05T15:29:09;23.60;66.50
62912;DHT22;49111;51.028;4.218;2022-07-05T15:31:36;23.50;67.20
62912;DHT22;49111;51.028;4.218;2022-07-05T15:34:04;23.40;67.20
62912;DHT22;49111;51.028;4.218;2022-07-05T15:36:30;23.40;66.50
62912;DHT22;49111;51.028;4.218;2022-07-05T15:39:00;23.30;65.40
62912;DHT22;49111;51.028;4.218;2022-07-05T15:41:32;23.20;67.30
62912;DHT22;49111;51.028;4.218;2022-07-05T15:43:59;23.30;67.60
62912;DHT22;49111;51.028;4.218;2022-07-05T15:46:25;23.20;67.40
62912;DHT22;49111;51.028;4.218;2022-07-05T15:48:51;23.00;67.00
62912;DHT22;49111;51.028;4.218;2022-07-05T15:51:19;23.20;66.80
62912;DHT22;49111;51.028;4.218;2022-07-05T15:53:46;23.30;66.70
62912;DHT22;49111;51.028;4.218;2022-07-05T15:56:12;23.30;65.20
62912;DHT22;49111;51.028;4.218;2022-07-05T15:58:38;23.10;65.00
62912;DHT22;49111;51.028;4.218;2022-07-05T16:01:06;23.00;66.80
62912;DHT22;49111;51.028;4.218;2022-07-05T16:03:32;22.90;64.60
62912;DHT22;49111;51.028;4.218;2022-07-05T16:05:59;23.00;66.00